sensor_id;sensor_type;location;lat;lon;timestamp;temperature;humidity
14142;DHT22;7151;52.246;4.820;2023-08-20T00:01:52;24.20;70.10
14142;DHT22;7151;52.246;4.820;2023-08-20T00:04:21;24.20;70.30
14142;DHT22;7151;52.246;4.820;2023-08-20T00:06:47;24.20;70.50
14142;DHT22;7151;52.246;4.820;2023-08-20T00:09:13;24.10;70.50
14142;DHT22;7151;52.246;4.820;2023-08-20T00:11:38;24.10;70.70
14142;DHT22;7151;52.246;4.820;2023-08-20T00:14:04;24.10;70.90
14142;DHT22;7151;52.246;4.820;2023-08-20T00:16:29;24.00;70.90
14142;DHT22;7151;52.246;4.820;2023-08-20T00:18:55;24.00;71.10
14142;DHT22;7151;52.246;4.820;2023-08-20T00:21:21;24.00;71.20
14142;DHT22;7151;52.246;4.820;2023-08-20T00:23:47;24.00;71.40
14142;DHT22;7151;52.246;4.820;2023-08-20T00:26:13;24.00;71.60
14142;DHT22;7151;52.246;4.820;2023-08-20T00:28:39;23.90;71.70
14142;DHT22;7151;52.246;4.820;2023-08-20T00:31:04;23.90;71.90
14142;DHT22;7151;52.246;4.820;2023-08-20T00:33:31;23.90;72.10
14142;DHT22;7151;52.246;4.820;2023-08-20T00:35:57;23.90;72.20
14142;DHT22;7151;52.246;4.820;2023-08-20T00:38:22;23.90;72.30
14142;DHT22;7151;52.246;4.820;2023-08-20T00:40:48;23.90;72.30
14142;DHT22;7151;52.246;4.820;2023-08-20T00:43:14;23.90;72.50
14142;DHT22;7151;52.246;4.820;2023-08-20T00:45:41;23.90;72.60
14142;DHT22;7151;52.246;4.820;2023-08-20T00:48:08;23.90;72.80
14142;DHT22;7151;52.246;4.820;2023-08-20T00:50:34;23.80;72.80
14142;DHT22;7151;52.246;4.820;2023-08-20T00:53:00;23.80;73.70
14142;DHT22;7151;52.246;4.820;2023-08-20T00:55:26;23.80;73.20
14142;DHT22;7151;52.246;4.820;2023-08-20T00:57:52;23.80;73.30
14142;DHT22;7151;52.246;4.820;2023-08-20T01:00:18;23.80;73.40
14142;DHT22;7151;52.246;4.820;2023-08-20T01:02:43;23.80;73.50
14142;DHT22;7151;52.246;4.820;2023-08-20T01:05:11;23.80;73.50
14142;DHT22;7151;52.246;4.820;2023-08-20T01:07:45;23.80;73.60
14142;DHT22;7151;52.246;4.820;2023-08-20T01:10:43;23.80;73.60
14142;DHT22;7151;52.246;4.820;2023-08-20T01:13:11;23.80;73.70
14142;DHT22;7151;52.246;4.820;2023-08-20T01:15:37;23.80;73.60
14142;DHT22;7151;52.246;4.820;2023-08-20T01:18:02;23.80;73.70
14142;DHT22;7151;52.246;4.820;2023-08-20T01:20:36;23.70;73.70
14142;DHT22;7151;52.246;4.820;2023-08-20T01:28:43;23.70;73.80
14142;DHT22;7151;52.246;4.820;2023-08-20T01:31:10;23.70;73.80
14142;DHT22;7151;52.246;4.820;2023-08-20T01:33:37;23.60;73.80
14142;DHT22;7151;52.246;4.820;2023-08-20T01:36:03;23.60;73.90
14142;DHT22;7151;52.246;4.820;2023-08-20T01:38:35;23.60;74.00
14142;DHT22;7151;52.246;4.820;2023-08-20T01:41:01;23.60;74.00
14142;DHT22;7151;52.246;4.820;2023-08-20T01:43:27;23.50;74.00
14142;DHT22;7151;52.246;4.820;2023-08-20T01:45:53;23.50;74.20
14142;DHT22;7151;52.246;4.820;2023-08-20T01:48:18;23.50;74.20
14142;DHT22;7151;52.246;4.820;2023-08-20T01:50:44;23.40;74.20
14142;DHT22;7151;52.246;4.820;2023-08-20T01:53:11;23.40;74.20
14142;DHT22;7151;52.246;4.820;2023-08-20T01:55:37;23.40;74.30
14142;DHT22;7151;52.246;4.820;2023-08-20T01:58:02;23.40;74.40
14142;DHT22;7151;52.246;4.820;2023-08-20T02:00:28;23.30;74.50
14142;DHT22;7151;52.246;4.820;2023-08-20T02:02:54;23.30;74.60
14142;DHT22;7151;52.246;4.820;2023-08-20T02:05:19;23.30;74.80
14142;DHT22;7151;52.246;4.820;2023-08-20T02:07:45;23.30;75.60
14142;DHT22;7151;52.246;4.820;2023-08-20T02:10:10;23.30;74.90
14142;DHT22;7151;52.246;4.820;2023-08-20T02:12:36;23.30;75.00
14142;DHT22;7151;52.246;4.820;2023-08-20T02:15:02;23.30;75.00
14142;DHT22;7151;52.246;4.820;2023-08-20T02:17:29;23.30;75.10
14142;DHT22;7151;52.246;4.820;2023-08-20T02:19:54;23.30;75.10
14142;DHT22;7151;52.246;4.820;2023-08-20T02:22:20;23.30;75.10
14142;DHT22;7151;52.246;4.820;2023-08-20T02:24:46;23.20;75.10
14142;DHT22;7151;52.246;4.820;2023-08-20T02:27:12;23.20;75.10
14142;DHT22;7151;52.246;4.820;2023-08-20T02:29:37;23.20;75.30
14142;DHT22;7151;52.246;4.820;2023-08-20T02:32:03;23.20;75.30
14142;DHT22;7151;52.246;4.820;2023-08-20T02:34:28;23.20;75.30
14142;DHT22;7151;52.246;4.820;2023-08-20T02:36:54;23.10;75.30
14142;DHT22;7151;52.246;4.820;2023-08-20T02:39:20;23.10;75.40
14142;DHT22;7151;52.246;4.820;2023-08-20T02:41:45;23.10;75.60
14142;DHT22;7151;52.246;4.820;2023-08-20T02:44:11;23.10;75.50
14142;DHT22;7151;52.246;4.820;2023-08-20T02:46:37;23.10;75.60
14142;DHT22;7151;52.246;4.820;2023-08-20T02:49:03;23.00;75.60
14142;DHT22;7151;52.246;4.820;2023-08-20T02:51:29;23.00;75.70
14142;DHT22;7151;52.246;4.820;2023-08-20T02:53:55;23.00;75.70
14142;DHT22;7151;52.246;4.820;2023-08-20T02:56:20;23.00;75.80
14142;DHT22;7151;52.246;4.820;2023-08-20T02:58:46;23.00;75.90
14142;DHT22;7151;52.246;4.820;2023-08-20T03:01:22;22.90;75.80
14142;DHT22;7151;52.246;4.820;2023-08-20T03:03:48;22.90;76.00
14142;DHT22;7151;52.246;4.820;2023-08-20T03:06:14;22.90;76.00
14142;DHT22;7151;52.246;4.820;2023-08-20T03:08:39;22.90;76.00
14142;DHT22;7151;52.246;4.820;2023-08-20T03:11:05;22.90;76.10
14142;DHT22;7151;52.246;4.820;2023-08-20T03:13:31;22.80;76.10
14142;DHT22;7151;52.246;4.820;2023-08-20T03:15:56;22.80;76.30
14142;DHT22;7151;52.246;4.820;2023-08-20T03:18:22;22.80;76.40
14142;DHT22;7151;52.246;4.820;2023-08-20T03:20:47;22.80;76.50
14142;DHT22;7151;52.246;4.820;2023-08-20T03:23:13;22.80;76.60
14142;DHT22;7151;52.246;4.820;2023-08-20T03:25:38;22.70;76.70
14142;DHT22;7151;52.246;4.820;2023-08-20T03:28:04;22.80;76.80
14142;DHT22;7151;52.246;4.820;2023-08-20T03:30:30;22.70;76.80
14142;DHT22;7151;52.246;4.820;2023-08-20T03:32:56;22.70;76.80
14142;DHT22;7151;52.246;4.820;2023-08-20T03:35:22;22.70;76.90
14142;DHT22;7151;52.246;4.820;2023-08-20T03:37:48;22.70;77.00
14142;DHT22;7151;52.246;4.820;2023-08-20T03:40:13;22.60;77.00
14142;DHT22;7151;52.246;4.820;2023-08-20T03:42:39;22.60;77.00
14142;DHT22;7151;52.246;4.820;2023-08-20T03:45:05;22.60;77.00
14142;DHT22;7151;52.246;4.820;2023-08-20T03:47:31;22.60;77.00
14142;DHT22;7151;52.246;4.820;2023-08-20T03:49:56;22.60;77.00
14142;DHT22;7151;52.246;4.820;2023-08-20T03:52:22;22.60;77.10
14142;DHT22;7151;52.246;4.820;2023-08-20T03:54:48;22.50;77.00
14142;DHT22;7151;52.246;4.820;2023-08-20T03:57:13;22.50;77.10
14142;DHT22;7151;52.246;4.820;2023-08-20T03:59:39;22.50;77.00
14142;DHT22;7151;52.246;4.820;2023-08-20T04:02:04;22.50;77.10
14142;DHT22;7151;52.246;4.820;2023-08-20T04:04:30;22.50;77.10
14142;DHT22;7151;52.246;4.820;2023-08-20T04:06:55;22.50;77.10
14142;DHT22;7151;52.246;4.820;2023-08-20T04:09:21;22.40;77.10
14142;DHT22;7151;52.246;4.820;2023-08-20T04:11:47;22.40;77.20
14142;DHT22;7151;52.246;4.820;2023-08-20T04:14:12;22.40;77.20
14142;DHT22;7151;52.246;4.820;2023-08-20T04:16:38;22.30;77.20
14142;DHT22;7151;52.246;4.820;2023-08-20T04:19:03;22.30;77.20
14142;DHT22;7151;52.246;4.820;2023-08-20T04:21:29;22.30;77.30
14142;DHT22;7151;52.246;4.820;2023-08-20T04:23:54;22.30;77.40
14142;DHT22;7151;52.246;4.820;2023-08-20T04:26:20;22.30;77.50
14142;DHT22;7151;52.246;4.820;2023-08-20T04:28:45;22.20;77.40
14142;DHT22;7151;52.246;4.820;2023-08-20T04:31:11;22.20;77.40
14142;DHT22;7151;52.246;4.820;2023-08-20T04:33:37;22.20;77.50
14142;DHT22;7151;52.246;4.820;2023-08-20T04:36:02;22.20;77.50
14142;DHT22;7151;52.246;4.820;2023-08-20T04:38:28;22.10;77.50
14142;DHT22;7151;52.246;4.820;2023-08-20T04:40:53;22.10;77.50
14142;DHT22;7151;52.246;4.820;2023-08-20T04:43:19;22.10;77.70
14142;DHT22;7151;52.246;4.820;2023-08-20T04:45:44;22.10;77.70
14142;DHT22;7151;52.246;4.820;2023-08-20T04:48:10;22.10;77.70
14142;DHT22;7151;52.246;4.820;2023-08-20T04:50:36;22.00;77.70
14142;DHT22;7151;52.246;4.820;2023-08-20T04:53:01;22.00;77.70
14142;DHT22;7151;52.246;4.820;2023-08-20T04:55:27;22.00;77.80
14142;DHT22;7151;52.246;4.820;2023-08-20T04:57:53;21.90;77.80
14142;DHT22;7151;52.246;4.820;2023-08-20T05:00:19;21.90;78.00
14142;DHT22;7151;52.246;4.820;2023-08-20T05:02:45;21.90;78.00
14142;DHT22;7151;52.246;4.820;2023-08-20T05:05:11;21.90;78.00
14142;DHT22;7151;52.246;4.820;2023-08-20T05:07:37;21.90;78.10
14142;DHT22;7151;52.246;4.820;2023-08-20T05:10:03;21.90;78.30
14142;DHT22;7151;52.246;4.820;2023-08-20T05:12:28;21.80;78.30
14142;DHT22;7151;52.246;4.820;2023-08-20T05:14:54;21.80;78.40
14142;DHT22;7151;52.246;4.820;2023-08-20T05:17:20;21.80;78.50
14142;DHT22;7151;52.246;4.820;2023-08-20T05:19:46;21.80;78.60
14142;DHT22;7151;52.246;4.820;2023-08-20T05:22:11;21.80;78.70
14142;DHT22;7151;52.246;4.820;2023-08-20T05:24:37;21.80;78.80
14142;DHT22;7151;52.246;4.820;2023-08-20T05:27:16;21.80;78.90
14142;DHT22;7151;52.246;4.820;2023-08-20T05:29:43;21.80;79.20
14142;DHT22;7151;52.246;4.820;2023-08-20T05:32:09;21.80;79.20
14142;DHT22;7151;52.246;4.820;2023-08-20T05:34:35;21.80;79.40
14142;DHT22;7151;52.246;4.820;2023-08-20T05:37:01;21.80;79.60
14142;DHT22;7151;52.246;4.820;2023-08-20T05:39:27;21.90;79.80
14142;DHT22;7151;52.246;4.820;2023-08-20T05:41:53;21.80;80.00
14142;DHT22;7151;52.246;4.820;2023-08-20T05:44:19;21.90;80.30
14142;DHT22;7151;52.246;4.820;2023-08-20T05:46:45;21.90;80.50
14142;DHT22;7151;52.246;4.820;2023-08-20T05:49:11;21.90;80.60
14142;DHT22;7151;52.246;4.820;2023-08-20T05:51:37;21.90;80.80
14142;DHT22;7151;52.246;4.820;2023-08-20T05:54:03;21.90;80.90
14142;DHT22;7151;52.246;4.820;2023-08-20T05:56:28;22.00;81.20
14142;DHT22;7151;52.246;4.820;2023-08-20T05:58:54;22.00;81.30
14142;DHT22;7151;52.246;4.820;2023-08-20T06:01:20;22.00;81.30
14142;DHT22;7151;52.246;4.820;2023-08-20T06:03:45;22.00;81.50
14142;DHT22;7151;52.246;4.820;2023-08-20T06:06:11;22.10;81.70
14142;DHT22;7151;52.246;4.820;2023-08-20T06:08:36;22.10;81.70
14142;DHT22;7151;52.246;4.820;2023-08-20T06:11:02;22.10;81.80
14142;DHT22;7151;52.246;4.820;2023-08-20T06:13:27;22.20;81.90
14142;DHT22;7151;52.246;4.820;2023-08-20T06:15:53;22.20;82.10
14142;DHT22;7151;52.246;4.820;2023-08-20T06:18:18;22.20;82.10
14142;DHT22;7151;52.246;4.820;2023-08-20T06:20:44;22.20;82.20
14142;DHT22;7151;52.246;4.820;2023-08-20T06:23:09;22.20;82.20
14142;DHT22;7151;52.246;4.820;2023-08-20T06:25:35;22.30;82.40
14142;DHT22;7151;52.246;4.820;2023-08-20T06:28:01;22.30;82.50
14142;DHT22;7151;52.246;4.820;2023-08-20T06:30:26;22.30;82.50
14142;DHT22;7151;52.246;4.820;2023-08-20T06:32:52;22.30;82.60
14142;DHT22;7151;52.246;4.820;2023-08-20T06:35:17;22.40;82.70
14142;DHT22;7151;52.246;4.820;2023-08-20T06:37:43;22.40;82.80
14142;DHT22;7151;52.246;4.820;2023-08-20T06:40:09;22.30;82.80
14142;DHT22;7151;52.246;4.820;2023-08-20T06:42:34;22.40;83.00
14142;DHT22;7151;52.246;4.820;2023-08-20T06:45:00;22.40;83.10
14142;DHT22;7151;52.246;4.820;2023-08-20T06:47:26;22.40;84.00
14142;DHT22;7151;52.246;4.820;2023-08-20T06:49:51;22.50;83.40
14142;DHT22;7151;52.246;4.820;2023-08-20T06:52:17;22.50;83.50
14142;DHT22;7151;52.246;4.820;2023-08-20T06:54:43;22.50;83.60
14142;DHT22;7151;52.246;4.820;2023-08-20T06:57:09;22.60;83.80
14142;DHT22;7151;52.246;4.820;2023-08-20T06:59:35;22.60;83.80
14142;DHT22;7151;52.246;4.820;2023-08-20T07:02:00;22.60;84.00
14142;DHT22;7151;52.246;4.820;2023-08-20T07:04:26;22.60;84.00
14142;DHT22;7151;52.246;4.820;2023-08-20T07:06:51;22.70;84.20
14142;DHT22;7151;52.246;4.820;2023-08-20T07:09:17;22.70;84.30
14142;DHT22;7151;52.246;4.820;2023-08-20T07:11:43;22.80;84.40
14142;DHT22;7151;52.246;4.820;2023-08-20T07:14:08;22.80;84.40
14142;DHT22;7151;52.246;4.820;2023-08-20T07:16:34;22.80;84.40
14142;DHT22;7151;52.246;4.820;2023-08-20T07:18:59;22.80;84.40
14142;DHT22;7151;52.246;4.820;2023-08-20T07:21:25;22.90;84.60
14142;DHT22;7151;52.246;4.820;2023-08-20T07:23:51;22.90;84.50
14142;DHT22;7151;52.246;4.820;2023-08-20T07:26:16;22.90;84.40
14142;DHT22;7151;52.246;4.820;2023-08-20T07:28:42;23.00;85.20
14142;DHT22;7151;52.246;4.820;2023-08-20T07:31:34;23.00;84.50
14142;DHT22;7151;52.246;4.820;2023-08-20T07:34:01;23.00;84.50
14142;DHT22;7151;52.246;4.820;2023-08-20T07:36:28;23.10;84.50
14142;DHT22;7151;52.246;4.820;2023-08-20T07:38:54;23.10;84.40
14142;DHT22;7151;52.246;4.820;2023-08-20T07:41:21;23.20;84.50
14142;DHT22;7151;52.246;4.820;2023-08-20T07:43:47;23.20;84.40
14142;DHT22;7151;52.246;4.820;2023-08-20T07:46:14;23.20;84.30
14142;DHT22;7151;52.246;4.820;2023-08-20T07:48:40;23.20;84.50
14142;DHT22;7151;52.246;4.820;2023-08-20T07:51:06;23.20;84.50
14142;DHT22;7151;52.246;4.820;2023-08-20T07:53:33;23.30;84.50
14142;DHT22;7151;52.246;4.820;2023-08-20T07:56:02;23.30;85.20
14142;DHT22;7151;52.246;4.820;2023-08-20T07:58:28;23.30;84.30
14142;DHT22;7151;52.246;4.820;2023-08-20T08:00:54;23.40;84.30
14142;DHT22;7151;52.246;4.820;2023-08-20T08:03:20;23.40;84.20
14142;DHT22;7151;52.246;4.820;2023-08-20T08:05:49;23.40;84.00
14142;DHT22;7151;52.246;4.820;2023-08-20T08:08:16;23.50;83.90
14142;DHT22;7151;52.246;4.820;2023-08-20T08:10:43;23.60;83.90
14142;DHT22;7151;52.246;4.820;2023-08-20T08:13:12;23.60;83.80
14142;DHT22;7151;52.246;4.820;2023-08-20T08:15:38;23.60;83.70
14142;DHT22;7151;52.246;4.820;2023-08-20T08:18:04;23.70;83.90
14142;DHT22;7151;52.246;4.820;2023-08-20T08:20:29;23.70;83.80
14142;DHT22;7151;52.246;4.820;2023-08-20T08:22:55;23.70;83.80
14142;DHT22;7151;52.246;4.820;2023-08-20T08:25:20;23.80;83.70
14142;DHT22;7151;52.246;4.820;2023-08-20T08:27:46;23.80;83.60
14142;DHT22;7151;52.246;4.820;2023-08-20T08:30:12;23.90;83.50
14142;DHT22;7151;52.246;4.820;2023-08-20T08:32:37;23.90;83.30
14142;DHT22;7151;52.246;4.820;2023-08-20T08:35:03;23.90;83.10
14142;DHT22;7151;52.246;4.820;2023-08-20T08:37:29;24.00;82.90
14142;DHT22;7151;52.246;4.820;2023-08-20T08:39:54;24.00;82.70
14142;DHT22;7151;52.246;4.820;2023-08-20T08:42:22;24.00;82.60
14142;DHT22;7151;52.246;4.820;2023-08-20T08:44:49;24.10;82.50
14142;DHT22;7151;52.246;4.820;2023-08-20T08:47:15;24.10;82.50
14142;DHT22;7151;52.246;4.820;2023-08-20T08:49:42;24.20;82.80
14142;DHT22;7151;52.246;4.820;2023-08-20T08:52:10;24.30;83.30
14142;DHT22;7151;52.246;4.820;2023-08-20T08:54:36;24.40;83.60
14142;DHT22;7151;52.246;4.820;2023-08-20T08:57:02;24.60;83.80
14142;DHT22;7151;52.246;4.820;2023-08-20T08:59:28;24.70;83.80
14142;DHT22;7151;52.246;4.820;2023-08-20T09:01:54;24.90;83.70
14142;DHT22;7151;52.246;4.820;2023-08-20T09:04:22;25.10;83.50
14142;DHT22;7151;52.246;4.820;2023-08-20T09:06:50;25.20;83.40
14142;DHT22;7151;52.246;4.820;2023-08-20T09:09:18;25.50;83.40
14142;DHT22;7151;52.246;4.820;2023-08-20T09:11:44;25.60;83.30
14142;DHT22;7151;52.246;4.820;2023-08-20T09:14:22;25.70;83.10
14142;DHT22;7151;52.246;4.820;2023-08-20T09:17:00;25.90;83.00
14142;DHT22;7151;52.246;4.820;2023-08-20T09:19:31;26.00;82.80
14142;DHT22;7151;52.246;4.820;2023-08-20T09:22:00;26.20;82.50
14142;DHT22;7151;52.246;4.820;2023-08-20T09:24:33;26.30;82.40
14142;DHT22;7151;52.246;4.820;2023-08-20T09:27:05;26.30;82.10
14142;DHT22;7151;52.246;4.820;2023-08-20T09:29:48;26.50;82.00
14142;DHT22;7151;52.246;4.820;2023-08-20T09:32:23;26.60;81.90
14142;DHT22;7151;52.246;4.820;2023-08-20T09:34:50;26.70;81.70
14142;DHT22;7151;52.246;4.820;2023-08-20T09:37:17;26.80;81.90
14142;DHT22;7151;52.246;4.820;2023-08-20T09:39:43;26.90;81.50
14142;DHT22;7151;52.246;4.820;2023-08-20T09:42:10;27.00;81.40
14142;DHT22;7151;52.246;4.820;2023-08-20T09:44:38;27.00;80.90
14142;DHT22;7151;52.246;4.820;2023-08-20T09:47:09;27.10;81.10
14142;DHT22;7151;52.246;4.820;2023-08-20T09:49:43;27.20;81.00
14142;DHT22;7151;52.246;4.820;2023-08-20T09:52:11;27.20;80.60
14142;DHT22;7151;52.246;4.820;2023-08-20T09:57:12;27.40;80.10
14142;DHT22;7151;52.246;4.820;2023-08-20T09:59:40;27.40;79.80
14142;DHT22;7151;52.246;4.820;2023-08-20T10:02:09;27.40;79.50
14142;DHT22;7151;52.246;4.820;2023-08-20T10:04:37;27.50;79.40
14142;DHT22;7151;52.246;4.820;2023-08-20T10:07:03;27.50;79.20
14142;DHT22;7151;52.246;4.820;2023-08-20T10:09:29;27.60;79.10
14142;DHT22;7151;52.246;4.820;2023-08-20T10:11:55;27.70;78.70
14142;DHT22;7151;52.246;4.820;2023-08-20T10:14:21;27.70;77.80
14142;DHT22;7151;52.246;4.820;2023-08-20T10:16:47;27.70;76.40
14142;DHT22;7151;52.246;4.820;2023-08-20T10:19:15;27.70;75.90
14142;DHT22;7151;52.246;4.820;2023-08-20T10:21:45;27.80;75.60
14142;DHT22;7151;52.246;4.820;2023-08-20T10:24:18;27.80;75.30
14142;DHT22;7151;52.246;4.820;2023-08-20T10:26:47;27.90;74.20
14142;DHT22;7151;52.246;4.820;2023-08-20T10:32:08;28.00;73.50
14142;DHT22;7151;52.246;4.820;2023-08-20T10:34:36;28.00;73.10
14142;DHT22;7151;52.246;4.820;2023-08-20T10:37:15;28.10;72.50
14142;DHT22;7151;52.246;4.820;2023-08-20T10:39:41;28.10;72.00
14142;DHT22;7151;52.246;4.820;2023-08-20T10:45:07;28.10;71.50
14142;DHT22;7151;52.246;4.820;2023-08-20T10:47:43;28.10;71.20
14142;DHT22;7151;52.246;4.820;2023-08-20T10:50:16;28.10;71.30
14142;DHT22;7151;52.246;4.820;2023-08-20T10:52:50;28.20;71.50
14142;DHT22;7151;52.246;4.820;2023-08-20T10:55:22;28.20;71.30
14142;DHT22;7151;52.246;4.820;2023-08-20T10:57:57;28.20;71.30
14142;DHT22;7151;52.246;4.820;2023-08-20T11:00:25;28.30;71.10
14142;DHT22;7151;52.246;4.820;2023-08-20T11:02:52;28.40;71.10
14142;DHT22;7151;52.246;4.820;2023-08-20T11:05:19;28.40;70.10
14142;DHT22;7151;52.246;4.820;2023-08-20T11:07:47;28.50;69.70
14142;DHT22;7151;52.246;4.820;2023-08-20T11:10:14;28.50;69.50
14142;DHT22;7151;52.246;4.820;2023-08-20T11:12:40;28.50;69.40
14142;DHT22;7151;52.246;4.820;2023-08-20T11:15:08;28.50;69.30
14142;DHT22;7151;52.246;4.820;2023-08-20T11:17:34;28.60;69.30
14142;DHT22;7151;52.246;4.820;2023-08-20T11:20:00;28.70;69.20
14142;DHT22;7151;52.246;4.820;2023-08-20T11:22:26;28.70;69.20
14142;DHT22;7151;52.246;4.820;2023-08-20T11:24:52;28.80;69.00
14142;DHT22;7151;52.246;4.820;2023-08-20T11:27:18;28.80;68.50
14142;DHT22;7151;52.246;4.820;2023-08-20T11:29:43;28.90;68.30
14142;DHT22;7151;52.246;4.820;2023-08-20T11:32:09;29.00;68.20
14142;DHT22;7151;52.246;4.820;2023-08-20T11:34:36;29.00;67.70
14142;DHT22;7151;52.246;4.820;2023-08-20T11:37:03;29.10;67.40
14142;DHT22;7151;52.246;4.820;2023-08-20T11:39:30;29.20;66.60
14142;DHT22;7151;52.246;4.820;2023-08-20T11:41:56;29.20;66.70
14142;DHT22;7151;52.246;4.820;2023-08-20T11:44:22;29.20;66.60
14142;DHT22;7151;52.246;4.820;2023-08-20T11:46:48;29.30;66.50
14142;DHT22;7151;52.246;4.820;2023-08-20T11:49:15;29.30;66.40
14142;DHT22;7151;52.246;4.820;2023-08-20T11:51:47;29.40;66.20
14142;DHT22;7151;52.246;4.820;2023-08-20T11:54:16;29.50;66.00
14142;DHT22;7151;52.246;4.820;2023-08-20T11:56:50;29.50;66.00
14142;DHT22;7151;52.246;4.820;2023-08-20T11:59:18;29.60;65.50
14142;DHT22;7151;52.246;4.820;2023-08-20T12:01:52;29.70;65.70
14142;DHT22;7151;52.246;4.820;2023-08-20T12:04:17;29.70;64.90
14142;DHT22;7151;52.246;4.820;2023-08-20T12:06:43;29.80;65.10
14142;DHT22;7151;52.246;4.820;2023-08-20T12:09:22;29.80;65.00
14142;DHT22;7151;52.246;4.820;2023-08-20T12:11:49;29.90;64.80
14142;DHT22;7151;52.246;4.820;2023-08-20T12:14:16;29.90;64.90
14142;DHT22;7151;52.246;4.820;2023-08-20T12:16:41;30.00;64.90
14142;DHT22;7151;52.246;4.820;2023-08-20T12:19:07;30.10;64.90
14142;DHT22;7151;52.246;4.820;2023-08-20T12:21:34;30.20;64.60
14142;DHT22;7151;52.246;4.820;2023-08-20T12:24:00;30.20;64.20
14142;DHT22;7151;52.246;4.820;2023-08-20T12:26:25;30.30;64.00
14142;DHT22;7151;52.246;4.820;2023-08-20T12:28:51;30.30;63.70
14142;DHT22;7151;52.246;4.820;2023-08-20T12:31:17;30.40;63.60
14142;DHT22;7151;52.246;4.820;2023-08-20T12:33:42;30.40;63.30
14142;DHT22;7151;52.246;4.820;2023-08-20T12:36:08;30.50;63.20
14142;DHT22;7151;52.246;4.820;2023-08-20T12:38:33;30.50;62.70
14142;DHT22;7151;52.246;4.820;2023-08-20T12:41:00;30.60;62.40
14142;DHT22;7151;52.246;4.820;2023-08-20T12:43:26;30.60;62.30
14142;DHT22;7151;52.246;4.820;2023-08-20T12:45:52;30.60;62.10
14142;DHT22;7151;52.246;4.820;2023-08-20T12:48:18;30.70;62.10
14142;DHT22;7151;52.246;4.820;2023-08-20T12:50:43;30.80;62.10
14142;DHT22;7151;52.246;4.820;2023-08-20T12:53:09;30.80;62.10
14142;DHT22;7151;52.246;4.820;2023-08-20T12:55:34;30.90;62.10
14142;DHT22;7151;52.246;4.820;2023-08-20T12:58:00;31.00;61.90
14142;DHT22;7151;52.246;4.820;2023-08-20T13:00:26;31.10;61.30
14142;DHT22;7151;52.246;4.820;2023-08-20T13:02:56;31.10;61.10
14142;DHT22;7151;52.246;4.820;2023-08-20T13:05:23;31.20;61.20
14142;DHT22;7151;52.246;4.820;2023-08-20T13:07:49;31.20;61.20
14142;DHT22;7151;52.246;4.820;2023-08-20T13:10:15;31.30;60.50
14142;DHT22;7151;52.246;4.820;2023-08-20T13:12:41;31.30;60.10
14142;DHT22;7151;52.246;4.820;2023-08-20T13:15:08;31.40;60.00
14142;DHT22;7151;52.246;4.820;2023-08-20T13:17:36;31.50;60.00
14142;DHT22;7151;52.246;4.820;2023-08-20T13:20:03;31.50;59.90
14142;DHT22;7151;52.246;4.820;2023-08-20T13:22:30;31.50;59.80
14142;DHT22;7151;52.246;4.820;2023-08-20T13:24:56;31.60;59.90
14142;DHT22;7151;52.246;4.820;2023-08-20T13:27:21;31.60;59.50
14142;DHT22;7151;52.246;4.820;2023-08-20T13:29:47;31.60;59.20
14142;DHT22;7151;52.246;4.820;2023-08-20T13:32:12;31.70;59.00
14142;DHT22;7151;52.246;4.820;2023-08-20T13:34:38;31.70;58.50
14142;DHT22;7151;52.246;4.820;2023-08-20T13:37:04;31.70;58.30
14142;DHT22;7151;52.246;4.820;2023-08-20T13:39:29;31.70;58.20
14142;DHT22;7151;52.246;4.820;2023-08-20T13:41:55;31.70;58.10
14142;DHT22;7151;52.246;4.820;2023-08-20T13:44:21;31.70;58.10
14142;DHT22;7151;52.246;4.820;2023-08-20T13:46:46;31.70;58.00
14142;DHT22;7151;52.246;4.820;2023-08-20T13:49:12;31.80;57.80
14142;DHT22;7151;52.246;4.820;2023-08-20T13:51:38;31.80;57.60
14142;DHT22;7151;52.246;4.820;2023-08-20T13:54:04;31.80;57.40
14142;DHT22;7151;52.246;4.820;2023-08-20T13:56:29;31.90;57.30
14142;DHT22;7151;52.246;4.820;2023-08-20T13:58:55;32.00;57.00
14142;DHT22;7151;52.246;4.820;2023-08-20T14:01:20;32.00;56.70
14142;DHT22;7151;52.246;4.820;2023-08-20T14:03:46;32.00;56.40
14142;DHT22;7151;52.246;4.820;2023-08-20T14:06:12;32.10;56.30
14142;DHT22;7151;52.246;4.820;2023-08-20T14:08:37;32.00;56.10
14142;DHT22;7151;52.246;4.820;2023-08-20T14:11:03;32.00;56.20
14142;DHT22;7151;52.246;4.820;2023-08-20T14:13:28;32.00;55.90
14142;DHT22;7151;52.246;4.820;2023-08-20T14:15:54;32.00;55.70
14142;DHT22;7151;52.246;4.820;2023-08-20T14:18:20;32.00;55.60
14142;DHT22;7151;52.246;4.820;2023-08-20T14:20:46;32.10;55.70
14142;DHT22;7151;52.246;4.820;2023-08-20T14:23:11;32.10;55.70
14142;DHT22;7151;52.246;4.820;2023-08-20T14:25:37;32.10;55.70
14142;DHT22;7151;52.246;4.820;2023-08-20T14:28:06;32.30;55.40
14142;DHT22;7151;52.246;4.820;2023-08-20T14:30:32;32.30;55.30
14142;DHT22;7151;52.246;4.820;2023-08-20T14:33:01;32.30;55.20
14142;DHT22;7151;52.246;4.820;2023-08-20T14:35:26;32.40;55.00
14142;DHT22;7151;52.246;4.820;2023-08-20T14:37:53;32.50;54.80
14142;DHT22;7151;52.246;4.820;2023-08-20T14:40:19;32.60;54.60
14142;DHT22;7151;52.246;4.820;2023-08-20T14:42:45;32.60;54.50
14142;DHT22;7151;52.246;4.820;2023-08-20T14:45:10;32.70;54.10
14142;DHT22;7151;52.246;4.820;2023-08-20T14:47:36;32.70;53.70
14142;DHT22;7151;52.246;4.820;2023-08-20T14:50:02;32.80;53.50
14142;DHT22;7151;52.246;4.820;2023-08-20T14:52:27;32.80;53.30
14142;DHT22;7151;52.246;4.820;2023-08-20T14:54:53;32.90;53.40
14142;DHT22;7151;52.246;4.820;2023-08-20T14:57:18;32.90;53.10
14142;DHT22;7151;52.246;4.820;2023-08-20T14:59:44;32.90;52.90
14142;DHT22;7151;52.246;4.820;2023-08-20T15:02:10;32.90;52.60
14142;DHT22;7151;52.246;4.820;2023-08-20T15:04:35;33.00;52.60
14142;DHT22;7151;52.246;4.820;2023-08-20T15:07:01;33.00;52.10
14142;DHT22;7151;52.246;4.820;2023-08-20T15:09:26;33.00;51.70
14142;DHT22;7151;52.246;4.820;2023-08-20T15:11:52;33.00;51.70
14142;DHT22;7151;52.246;4.820;2023-08-20T15:14:17;33.00;51.80
14142;DHT22;7151;52.246;4.820;2023-08-20T15:16:45;33.00;51.80
14142;DHT22;7151;52.246;4.820;2023-08-20T15:19:10;33.00;51.70
14142;DHT22;7151;52.246;4.820;2023-08-20T15:21:36;33.00;51.70
14142;DHT22;7151;52.246;4.820;2023-08-20T15:24:02;33.00;51.30
14142;DHT22;7151;52.246;4.820;2023-08-20T15:26:29;32.90;51.20
14142;DHT22;7151;52.246;4.820;2023-08-20T15:28:54;32.80;51.20
14142;DHT22;7151;52.246;4.820;2023-08-20T15:31:20;32.80;51.00
14142;DHT22;7151;52.246;4.820;2023-08-20T15:33:46;32.70;50.90
14142;DHT22;7151;52.246;4.820;2023-08-20T15:36:12;32.60;51.00
14142;DHT22;7151;52.246;4.820;2023-08-20T15:38:38;32.60;51.20
14142;DHT22;7151;52.246;4.820;2023-08-20T15:41:03;32.50;50.90
14142;DHT22;7151;52.246;4.820;2023-08-20T15:43:29;32.40;50.80
14142;DHT22;7151;52.246;4.820;2023-08-20T15:45:54;32.30;50.80
14142;DHT22;7151;52.246;4.820;2023-08-20T15:48:20;32.30;50.90
14142;DHT22;7151;52.246;4.820;2023-08-20T15:50:46;32.20;50.90
14142;DHT22;7151;52.246;4.820;2023-08-20T15:53:11;32.10;50.90
14142;DHT22;7151;52.246;4.820;2023-08-20T15:55:37;32.10;51.10